createdAt,value
2023-02-13T00:01:43.720Z,58.60
2023-02-13T00:04:11.490Z,66.50
2023-02-13T00:06:39.161Z,62.53
2023-02-13T00:09:11.040Z,60.03
2023-02-13T00:11:38.817Z,60.73
2023-02-13T00:14:06.503Z,62.50
2023-02-13T00:16:35.572Z,66.77
2023-02-13T00:19:03.252Z,69.27
2023-02-13T00:21:30.991Z,59.80
2023-02-13T00:23:58.714Z,59.30
2023-02-13T00:26:26.426Z,65.40
2023-02-13T00:28:54.036Z,67.57
2023-02-13T00:31:22.723Z,61.77
2023-02-13T00:33:51.934Z,61.60
2023-02-13T00:36:20.567Z,62.90
2023-02-13T00:38:48.208Z,61.67
2023-02-13T00:41:17.397Z,61.07
2023-02-13T00:43:45.552Z,60.37
2023-02-13T00:46:13.311Z,59.33
2023-02-13T00:48:41.304Z,65.37
2023-02-13T00:51:10.928Z,61.83
2023-02-13T00:53:38.847Z,65.57
2023-02-13T00:56:07.063Z,57.77
2023-02-13T00:58:34.867Z,62.30
2023-02-13T01:01:02.565Z,66.93
2023-02-13T01:03:30.355Z,63.30
2023-02-13T01:05:58.583Z,61.43
2023-02-13T01:08:28.516Z,61.60
2023-02-13T01:10:56.851Z,55.57
2023-02-13T01:13:24.704Z,58.07
2023-02-13T01:15:52.687Z,64.67
2023-02-13T01:18:21.008Z,56.20
2023-02-13T01:20:57.194Z,66.77
2023-02-13T01:23:25.205Z,61.30
2023-02-13T01:25:54.252Z,61.43
2023-02-13T01:28:21.973Z,61.93
2023-02-13T01:30:53.747Z,64.80
2023-02-13T01:33:21.406Z,65.73
2023-02-13T01:35:49.034Z,69.00
2023-02-13T01:38:16.921Z,72.77
2023-02-13T01:40:48.316Z,69.57
2023-02-13T01:43:17.438Z,73.20
2023-02-13T01:45:45.775Z,69.73
2023-02-13T01:48:15.741Z,78.83
2023-02-13T01:50:45.290Z,77.03
2023-02-13T01:53:14.450Z,68.10
2023-02-13T01:55:44.851Z,82.83
2023-02-13T01:58:13.934Z,78.00
2023-02-13T02:00:44.059Z,78.33
2023-02-13T02:03:13.552Z,79.90
2023-02-13T02:05:41.442Z,76.60
2023-02-13T02:08:10.473Z,72.50
2023-02-13T02:10:38.717Z,79.13
2023-02-13T02:13:08.216Z,79.17
2023-02-13T02:15:35.952Z,84.20
2023-02-13T02:18:07.394Z,79.03
2023-02-13T02:20:47.217Z,73.77
2023-02-13T02:23:35.646Z,70.50
2023-02-13T02:26:15.696Z,65.83
2023-02-13T02:28:53.662Z,64.47
2023-02-13T02:31:41.968Z,77.13
2023-02-13T02:34:16.278Z,70.30
2023-02-13T02:36:51.213Z,66.80
2023-02-13T02:39:24.372Z,60.17
2023-02-13T02:41:59.264Z,58.80
2023-02-13T02:44:33.845Z,59.13
2023-02-13T02:47:27.108Z,70.40
2023-02-13T02:50:03.105Z,58.83
2023-02-13T02:52:42.568Z,55.17
2023-02-13T02:55:17.880Z,60.63
2023-02-13T02:58:05.753Z,58.37
2023-02-13T03:00:52.286Z,65.30
2023-02-13T03:03:39.390Z,58.93
2023-02-13T03:06:14.284Z,67.70
2023-02-13T03:09:00.294Z,73.23
2023-02-13T03:11:45.713Z,78.60
2023-02-13T03:14:15.067Z,80.17
2023-02-13T03:17:00.596Z,85.77
2023-02-13T03:19:49.253Z,75.13
2023-02-13T03:22:26.393Z,82.70
2023-02-13T03:24:55.875Z,80.47
2023-02-13T03:27:41.979Z,80.07
2023-02-13T03:30:19.332Z,77.23
2023-02-13T03:32:48.979Z,80.93
2023-02-13T03:35:43.694Z,75.27
2023-02-13T03:38:15.622Z,77.67
2023-02-13T03:41:05.960Z,70.83
2023-02-13T03:43:37.339Z,69.87
2023-02-13T03:46:05.356Z,73.97
2023-02-13T03:48:52.964Z,79.83
2023-02-13T03:51:23.564Z,66.37
2023-02-13T03:53:55.063Z,77.50
2023-02-13T03:56:40.606Z,73.67
2023-02-13T03:59:17.263Z,78.80
2023-02-13T04:01:47.749Z,75.97
2023-02-13T04:04:19.208Z,67.73
2023-02-13T04:06:49.956Z,63.70
2023-02-13T04:09:19.384Z,68.50
2023-02-13T04:11:52.058Z,68.57
2023-02-13T04:14:22.230Z,62.63
2023-02-13T04:16:51.826Z,72.27
2023-02-13T04:19:19.922Z,69.23
2023-02-13T04:21:50.632Z,68.47
2023-02-13T04:24:19.679Z,72.70
2023-02-13T04:26:47.402Z,70.97
2023-02-13T04:29:15.079Z,69.63
2023-02-13T04:31:42.847Z,69.30
2023-02-13T04:34:10.612Z,63.77
2023-02-13T04:36:38.352Z,73.17
2023-02-13T04:39:06.003Z,71.57
2023-02-13T04:41:35.045Z,67.73
2023-02-13T04:44:02.779Z,72.97
2023-02-13T04:46:30.424Z,67.70
2023-02-13T04:48:58.080Z,66.57
2023-02-13T04:51:25.858Z,71.90
2023-02-13T04:53:53.606Z,75.40
2023-02-13T04:56:21.228Z,71.80
2023-02-13T04:58:50.327Z,69.50
2023-02-13T05:01:18.549Z,73.80
2023-02-13T05:03:46.284Z,71.97
2023-02-13T05:06:13.976Z,78.73
2023-02-13T05:08:41.696Z,74.23
2023-02-13T05:11:09.363Z,73.13
2023-02-13T05:13:37.037Z,64.53
2023-02-13T05:16:06.379Z,60.73
2023-02-13T05:18:34.076Z,63.17
2023-02-13T05:21:15.704Z,71.90
2023-02-13T05:23:43.390Z,65.80
2023-02-13T05:26:11.050Z,62.60
2023-02-13T05:28:56.062Z,71.67
2023-02-13T05:31:25.219Z,66.70
2023-02-13T05:33:53.006Z,66.77
2023-02-13T05:36:20.689Z,60.70
2023-02-13T05:38:48.341Z,61.87
2023-02-13T05:41:16.044Z,63.53
2023-02-13T05:43:43.747Z,62.10
2023-02-13T05:46:11.639Z,60.77
2023-02-13T05:48:40.706Z,64.23
2023-02-13T05:51:09.428Z,66.67
2023-02-13T05:53:37.214Z,64.53
2023-02-13T05:56:05.865Z,69.73
2023-02-13T05:58:33.719Z,68.27
2023-02-13T06:01:01.861Z,67.27
2023-02-13T06:03:30.267Z,62.90
2023-02-13T06:05:59.577Z,68.73
2023-02-13T06:08:27.256Z,62.63
2023-02-13T06:10:54.914Z,65.53
2023-02-13T06:13:22.659Z,68.43
2023-02-13T06:15:50.822Z,69.37
2023-02-13T06:18:18.626Z,67.07
2023-02-13T06:20:46.365Z,56.17
2023-02-13T06:23:15.700Z,66.17
2023-02-13T06:25:43.378Z,66.93
2023-02-13T06:28:11.120Z,69.90
2023-02-13T06:30:38.837Z,66.03
2023-02-13T06:33:06.600Z,64.70
2023-02-13T06:35:34.355Z,67.50
2023-02-13T06:38:02.056Z,60.83
2023-02-13T06:40:31.161Z,58.33
2023-02-13T06:42:58.951Z,59.70
2023-02-13T06:45:26.618Z,49.70
2023-02-13T06:47:55.335Z,58.63
2023-02-13T06:50:23.022Z,58.27
2023-02-13T06:52:52.006Z,60.90
2023-02-13T06:55:20.789Z,51.23
2023-02-13T06:57:49.869Z,59.90
2023-02-13T07:00:19.020Z,55.77
2023-02-13T07:02:47.922Z,58.63
2023-02-13T07:05:16.088Z,51.70
2023-02-13T07:07:44.215Z,55.73
2023-02-13T07:10:13.398Z,60.47
2023-02-13T07:12:41.239Z,53.17
2023-02-13T07:15:10.800Z,59.23
2023-02-13T07:17:38.427Z,56.10
2023-02-13T07:20:06.695Z,51.17
2023-02-13T07:22:34.357Z,51.30
2023-02-13T07:25:02.382Z,51.10
2023-02-13T07:27:30.442Z,56.07
2023-02-13T07:29:58.524Z,56.50
2023-02-13T07:32:27.643Z,54.40
2023-02-13T07:35:02.063Z,61.87
2023-02-13T07:37:30.813Z,58.60
2023-02-13T07:39:58.571Z,66.33
2023-02-13T07:42:26.235Z,71.53
2023-02-13T07:44:53.956Z,85.30
2023-02-13T07:47:21.674Z,77.10
2023-02-13T07:49:51.352Z,83.60
2023-02-13T07:52:19.048Z,86.50
2023-02-13T07:54:48.471Z,83.67
2023-02-13T07:57:16.458Z,79.97
2023-02-13T07:59:44.178Z,83.27
2023-02-13T08:02:12.537Z,87.97
2023-02-13T08:04:40.298Z,80.80
2023-02-13T08:07:09.352Z,74.10
2023-02-13T08:09:54.579Z,71.17
2023-02-13T08:12:22.245Z,68.10
2023-02-13T08:14:49.872Z,63.70
2023-02-13T08:17:17.520Z,66.33
2023-02-13T08:19:45.153Z,70.37
2023-02-13T08:22:14.236Z,65.43
2023-02-13T08:24:42.018Z,62.13
2023-02-13T08:27:12.514Z,68.07
2023-02-13T08:29:40.186Z,67.73
2023-02-13T08:32:08.254Z,67.97
2023-02-13T08:34:35.908Z,63.90
2023-02-13T08:37:03.913Z,60.10
2023-02-13T08:39:32.923Z,61.17
2023-02-13T08:42:00.598Z,70.43
2023-02-13T08:44:28.447Z,60.20
2023-02-13T08:46:56.707Z,64.27
2023-02-13T08:49:24.826Z,62.13
2023-02-13T08:51:52.498Z,51.80
2023-02-13T08:54:20.128Z,54.67
2023-02-13T08:56:49.215Z,52.70
2023-02-13T08:59:19.162Z,53.77
2023-02-13T09:01:46.873Z,54.13
2023-02-13T09:04:16.006Z,52.90
2023-02-13T09:06:43.695Z,54.83
2023-02-13T09:09:11.675Z,52.37
2023-02-13T09:11:39.362Z,54.43
2023-02-13T09:14:08.531Z,54.57
2023-02-13T09:16:36.273Z,53.73
2023-02-13T09:19:04.307Z,54.83
2023-02-13T09:21:31.937Z,53.93
2023-02-13T09:23:59.583Z,50.13
2023-02-13T09:26:27.335Z,51.83
2023-02-13T09:28:55.090Z,52.13
2023-02-13T09:31:26.319Z,53.87
2023-02-13T09:33:55.684Z,48.77
2023-02-13T09:36:24.190Z,54.57
2023-02-13T09:38:53.394Z,49.50
2023-02-13T09:41:22.035Z,49.40
2023-02-13T09:43:51.105Z,51.70
2023-02-13T09:46:20.757Z,50.60
2023-02-13T09:48:51.127Z,49.43
2023-02-13T09:51:19.868Z,52.33
2023-02-13T09:53:51.197Z,53.93
2023-02-13T09:56:22.409Z,51.33
2023-02-13T09:58:50.971Z,52.53
2023-02-13T10:01:21.023Z,48.20
2023-02-13T10:03:52.996Z,50.10
2023-02-13T10:06:23.847Z,51.27
2023-02-13T10:08:58.106Z,47.20
2023-02-13T10:11:35.271Z,52.23
2023-02-13T10:14:06.044Z,47.70
2023-02-13T10:16:36.880Z,49.07
2023-02-13T10:19:10.378Z,52.93
2023-02-13T10:21:39.762Z,51.00
2023-02-13T10:24:08.534Z,51.13
2023-02-13T10:26:45.618Z,44.87
2023-02-13T10:29:34.702Z,59.57
2023-02-13T10:32:04.190Z,50.73
2023-02-13T10:34:36.463Z,52.07
2023-02-13T10:37:04.597Z,54.70
2023-02-13T10:39:32.424Z,45.73
2023-02-13T10:42:05.074Z,45.43
2023-02-13T10:44:41.173Z,50.33
2023-02-13T10:47:12.760Z,50.67
2023-02-13T10:49:49.491Z,43.87
2023-02-13T10:52:26.436Z,45.60
2023-02-13T10:55:02.734Z,50.03
2023-02-13T10:57:33.916Z,43.93
2023-02-13T11:00:06.946Z,43.40
2023-02-13T11:02:36.473Z,40.70
2023-02-13T11:05:14.819Z,44.20
2023-02-13T11:07:43.217Z,44.87
2023-02-13T11:10:15.872Z,44.50
2023-02-13T11:12:43.644Z,43.53
2023-02-13T11:15:22.625Z,44.73
2023-02-13T11:17:51.085Z,40.97
2023-02-13T11:20:31.526Z,33.90
2023-02-13T11:23:18.591Z,40.33
2023-02-13T11:25:54.769Z,37.60
2023-02-13T11:28:22.874Z,38.50
2023-02-13T11:30:50.624Z,50.47
2023-02-13T11:33:24.631Z,41.57
2023-02-13T11:36:05.289Z,32.90
2023-02-13T11:38:33.045Z,38.57
2023-02-13T11:41:06.170Z,38.47
2023-02-13T11:43:37.143Z,33.27
2023-02-13T11:46:06.191Z,34.13
2023-02-13T11:48:33.878Z,37.80
2023-02-13T11:51:03.308Z,42.37
2023-02-13T11:53:31.626Z,32.10
2023-02-13T11:56:04.092Z,34.50
2023-02-13T11:58:32.238Z,33.53
2023-02-13T12:01:23.096Z,33.73
2023-02-13T12:03:58.421Z,34.80
2023-02-13T12:06:27.622Z,26.93
2023-02-13T12:08:55.747Z,28.43
2023-02-13T12:11:25.733Z,25.93
2023-02-13T12:13:53.679Z,26.63
2023-02-13T12:16:28.036Z,31.53
2023-02-13T12:18:58.456Z,24.23
2023-02-13T12:21:35.268Z,24.37
2023-02-13T12:24:05.434Z,20.83
2023-02-13T12:26:36.425Z,23.60
2023-02-13T12:29:17.759Z,20.97
2023-02-13T12:31:53.761Z,15.83
2023-02-13T12:34:39.110Z,18.27
2023-02-13T12:37:17.483Z,16.27
2023-02-13T12:39:49.857Z,19.50
2023-02-13T12:42:23.081Z,12.93
2023-02-13T12:45:12.941Z,15.27
2023-02-13T12:47:46.051Z,19.27
2023-02-13T12:50:29.178Z,15.90
2023-02-13T12:53:03.213Z,16.80
2023-02-13T12:55:39.144Z,12.70
2023-02-13T12:58:15.030Z,11.93
2023-02-13T13:00:48.565Z,12.40
2023-02-13T13:03:37.516Z,10.00
2023-02-13T13:06:19.891Z,15.33
2023-02-13T13:09:02.703Z,10.10
2023-02-13T13:11:47.172Z,12.30
2023-02-13T13:14:21.789Z,12.60
2023-02-13T13:16:55.158Z,14.17
2023-02-13T13:19:29.090Z,14.13
2023-02-13T13:22:01.016Z,13.63
2023-02-13T13:24:37.110Z,13.40
2023-02-13T13:27:05.283Z,12.80
2023-02-13T13:29:39.327Z,17.77
2023-02-13T13:32:08.550Z,16.70
2023-02-13T13:34:37.956Z,18.57
2023-02-13T13:37:13.967Z,15.00
2023-02-13T13:39:47.510Z,15.23
2023-02-13T13:42:18.261Z,16.07
2023-02-13T13:44:54.376Z,15.17
2023-02-13T13:47:27.308Z,14.93
2023-02-13T13:49:55.968Z,9.63
2023-02-13T13:52:27.237Z,11.13
2023-02-13T13:54:55.670Z,15.53
2023-02-13T13:57:24.199Z,14.43
2023-02-13T14:00:22.396Z,13.87
2023-02-13T14:02:50.589Z,19.63
2023-02-13T14:05:24.887Z,14.57
2023-02-13T14:07:54.896Z,15.17
2023-02-13T14:10:38.417Z,20.43
2023-02-13T14:13:07.930Z,15.10
2023-02-13T14:15:52.576Z,12.70
2023-02-13T14:18:22.072Z,15.37
2023-02-13T14:20:54.465Z,17.10
2023-02-13T14:23:28.072Z,13.27
2023-02-13T14:26:12.888Z,13.97
2023-02-13T14:28:42.169Z,13.83
2023-02-13T14:31:15.102Z,14.20
2023-02-13T14:33:43.255Z,15.93
2023-02-13T14:36:21.359Z,18.00
2023-02-13T14:38:57.942Z,14.33
2023-02-13T14:41:58.112Z,16.60
2023-02-13T14:44:27.307Z,17.27
2023-02-13T14:46:55.864Z,17.50
2023-02-13T14:49:28.009Z,17.67
2023-02-13T14:51:57.406Z,18.40
2023-02-13T14:54:28.789Z,13.97
2023-02-13T14:57:02.173Z,20.57
2023-02-13T14:59:33.124Z,21.33
2023-02-13T15:02:02.271Z,19.40
2023-02-13T15:04:32.417Z,15.17
2023-02-13T15:07:01.485Z,15.07
2023-02-13T15:09:33.756Z,20.23
2023-02-13T15:12:01.906Z,12.50
2023-02-13T15:14:33.528Z,13.87
2023-02-13T15:17:06.113Z,19.17
2023-02-13T15:19:35.550Z,19.40
2023-02-13T15:22:04.169Z,17.40
2023-02-13T15:24:36.573Z,15.77
2023-02-13T15:27:05.837Z,16.27
2023-02-13T15:29:48.832Z,18.77
2023-02-13T15:32:20.799Z,17.80
2023-02-13T15:34:48.749Z,16.17
2023-02-13T15:37:22.309Z,19.33
2023-02-13T15:39:51.462Z,14.20
2023-02-13T15:42:19.671Z,15.03
2023-02-13T15:44:49.173Z,15.43
2023-02-13T15:47:19.067Z,11.90
2023-02-13T15:49:48.265Z,14.00
2023-02-13T15:52:19.442Z,16.50
2023-02-13T15:54:53.049Z,14.53
2023-02-13T15:57:21.562Z,21.77
2023-02-13T15:59:50.928Z,14.87
2023-02-13T16:02:21.774Z,17.60
2023-02-13T16:04:51.763Z,18.43
2023-02-13T16:07:20.667Z,17.37
2023-02-13T16:09:49.573Z,17.23
2023-02-13T16:12:21.260Z,15.97
2023-02-13T16:14:50.712Z,18.30
2023-02-13T16:17:22.751Z,21.07
2023-02-13T16:19:53.976Z,16.83
2023-02-13T16:22:33.478Z,21.57
2023-02-13T16:25:18.144Z,18.70
2023-02-13T16:27:48.265Z,18.07
2023-02-13T16:30:28.441Z,19.47
2023-02-13T16:33:10.597Z,22.60
2023-02-13T16:35:39.075Z,15.40
2023-02-13T16:38:21.950Z,26.33
2023-02-13T16:40:49.665Z,22.40
2023-02-13T16:43:38.943Z,18.63
2023-02-13T16:46:28.022Z,21.80
2023-02-13T16:49:07.076Z,23.70
2023-02-13T16:51:37.544Z,26.47
2023-02-13T16:54:06.956Z,26.57
2023-02-13T16:56:41.653Z,25.97
2023-02-13T16:59:22.692Z,24.53
2023-02-13T17:01:51.186Z,27.03
2023-02-13T17:04:22.054Z,27.07
2023-02-13T17:06:49.932Z,25.97
2023-02-13T17:09:17.615Z,28.10
2023-02-13T17:11:50.825Z,25.93
2023-02-13T17:14:22.441Z,27.33
2023-02-13T17:16:50.799Z,28.23
2023-02-13T17:19:18.917Z,31.70
2023-02-13T17:21:47.402Z,28.17
2023-02-13T17:24:17.641Z,27.43
2023-02-13T17:26:46.657Z,31.20
2023-02-13T17:29:14.729Z,30.70
2023-02-13T17:31:43.889Z,27.57
2023-02-13T17:34:12.118Z,27.57
2023-02-13T17:36:39.886Z,29.40
2023-02-13T17:39:07.691Z,27.80
2023-02-13T17:41:35.712Z,31.57
2023-02-13T17:44:03.573Z,28.10
2023-02-13T17:46:32.531Z,29.27
2023-02-13T17:49:02.141Z,27.80
2023-02-13T17:51:30.067Z,25.83
2023-02-13T17:53:57.872Z,27.83
2023-02-13T17:56:25.786Z,27.60
2023-02-13T17:58:53.729Z,28.17
2023-02-13T18:01:21.631Z,26.13
2023-02-13T18:03:51.184Z,28.60
2023-02-13T18:06:21.497Z,26.50
2023-02-13T18:08:49.517Z,26.87
2023-02-13T18:11:17.604Z,26.63
2023-02-13T18:13:48.549Z,26.37
2023-02-13T18:16:16.403Z,22.67
2023-02-13T18:18:44.647Z,26.53
2023-02-13T18:21:13.629Z,22.83
2023-02-13T18:23:43.128Z,25.73
2023-02-13T18:26:14.398Z,25.33
2023-02-13T18:28:42.472Z,19.97
2023-02-13T18:31:10.601Z,22.50
2023-02-13T18:33:38.998Z,25.70
2023-02-13T18:36:08.017Z,24.53
2023-02-13T18:38:38.146Z,21.87
2023-02-13T18:41:07.909Z,26.20
2023-02-13T18:43:36.088Z,23.93
2023-02-13T18:46:04.964Z,27.00
2023-02-13T18:48:33.008Z,26.33
2023-02-13T18:51:01.349Z,28.70
2023-02-13T18:53:29.850Z,24.43
2023-02-13T18:56:02.390Z,31.73
2023-02-13T18:58:31.716Z,20.57
2023-02-13T19:01:06.200Z,20.50
2023-02-13T19:03:33.952Z,23.33
2023-02-13T19:06:06.121Z,22.73
2023-02-13T19:08:35.939Z,20.30
2023-02-13T19:11:04.151Z,22.63
2023-02-13T19:13:33.969Z,23.27
2023-02-13T19:16:08.284Z,21.07
2023-02-13T19:18:37.074Z,23.70
2023-02-13T19:21:05.220Z,23.43
2023-02-13T19:23:33.217Z,24.17
2023-02-13T19:26:05.261Z,20.50
2023-02-13T19:28:34.483Z,22.90
2023-02-13T19:31:08.158Z,26.47
2023-02-13T19:33:37.830Z,20.20
2023-02-13T19:36:08.306Z,19.33
2023-02-13T19:38:36.345Z,22.40
2023-02-13T19:41:04.751Z,23.83
2023-02-13T19:43:33.523Z,23.37
2023-02-13T19:46:05.087Z,18.47
2023-02-13T19:48:33.944Z,20.33
2023-02-13T19:51:07.929Z,19.90
2023-02-13T19:53:35.824Z,21.50
2023-02-13T19:56:04.378Z,20.00
2023-02-13T19:58:32.344Z,20.03
2023-02-13T20:01:08.633Z,22.63
2023-02-13T20:03:36.365Z,22.03
2023-02-13T20:06:05.058Z,17.50
2023-02-13T20:08:33.864Z,22.00
2023-02-13T20:11:02.286Z,20.40
2023-02-13T20:13:32.015Z,22.43
2023-02-13T20:16:00.312Z,20.57
2023-02-13T20:18:29.630Z,20.00
2023-02-13T20:20:57.708Z,20.40
2023-02-13T20:23:25.889Z,20.10
2023-02-13T20:25:53.824Z,19.27
2023-02-13T20:28:21.805Z,20.03
2023-02-13T20:30:49.911Z,15.70
2023-02-13T20:33:17.851Z,20.50
2023-02-13T20:35:47.117Z,16.37
2023-02-13T20:38:14.812Z,18.07
2023-02-13T20:40:42.764Z,20.33
2023-02-13T20:43:10.496Z,18.20
2023-02-13T20:45:38.545Z,17.27
2023-02-13T20:48:06.760Z,18.20
2023-02-13T20:50:34.459Z,18.63
2023-02-13T20:53:03.958Z,15.83
2023-02-13T20:55:32.454Z,17.77
2023-02-13T20:58:00.345Z,15.60
2023-02-13T21:00:28.232Z,20.87
2023-02-13T21:02:56.154Z,18.77
2023-02-13T21:05:24.096Z,18.50
2023-02-13T21:07:52.024Z,18.40
2023-02-13T21:10:23.809Z,18.47
2023-02-13T21:12:51.504Z,19.33
2023-02-13T21:15:19.331Z,17.30
2023-02-13T21:17:47.277Z,18.20
2023-02-13T21:20:15.531Z,18.60
2023-02-13T21:22:45.709Z,18.93
2023-02-13T21:25:14.994Z,18.23
2023-02-13T21:27:44.244Z,18.87
2023-02-13T21:30:12.432Z,16.60
2023-02-13T21:32:40.563Z,19.87
2023-02-13T21:35:09.433Z,18.13
2023-02-13T21:37:37.907Z,20.20
2023-02-13T21:40:06.120Z,18.17
2023-02-13T21:42:33.938Z,17.77
2023-02-13T21:45:04.296Z,18.53
2023-02-13T21:47:32.361Z,21.43
2023-02-13T21:50:00.171Z,39.83
2023-02-13T21:52:28.141Z,58.13
2023-02-13T21:54:56.248Z,41.47
2023-02-13T21:57:24.000Z,44.70
2023-02-13T21:59:51.834Z,36.83
2023-02-13T22:02:21.011Z,36.93
2023-02-13T22:04:48.937Z,44.20
2023-02-13T22:07:17.008Z,46.63
2023-02-13T22:09:45.143Z,48.07
2023-02-13T22:12:12.965Z,44.33
2023-02-13T22:14:41.783Z,40.67
2023-02-13T22:17:10.931Z,50.43
2023-02-13T22:19:41.264Z,51.67
2023-02-13T22:22:09.892Z,44.63
2023-02-13T22:24:37.993Z,48.37
2023-02-13T22:27:06.326Z,46.83
2023-02-13T22:29:34.436Z,55.60
2023-02-13T22:32:03.394Z,51.23
2023-02-13T22:34:31.406Z,52.03
2023-02-13T22:37:01.095Z,50.13
2023-02-13T22:39:28.918Z,55.33
2023-02-13T22:41:57.096Z,60.33
2023-02-13T22:44:25.594Z,50.80
2023-02-13T22:46:53.308Z,53.90
2023-02-13T22:49:20.978Z,60.60
2023-02-13T22:51:48.760Z,58.97
2023-02-13T22:54:18.009Z,55.50
2023-02-13T22:56:46.156Z,53.50
2023-02-13T22:59:14.066Z,65.30
2023-02-13T23:01:42.004Z,62.47
2023-02-13T23:04:09.843Z,58.83
2023-02-13T23:06:38.086Z,54.93
2023-02-13T23:09:05.717Z,54.20
2023-02-13T23:11:52.441Z,54.27
2023-02-13T23:14:23.535Z,50.63
2023-02-13T23:17:17.163Z,48.87
2023-02-13T23:19:45.105Z,42.63
2023-02-13T23:22:13.866Z,57.67
2023-02-13T23:24:41.591Z,55.00
2023-02-13T23:27:10.735Z,57.67
2023-02-13T23:29:38.692Z,53.33
2023-02-13T23:32:06.748Z,54.77
2023-02-13T23:34:35.739Z,52.10
2023-02-13T23:37:03.578Z,57.70
2023-02-13T23:39:32.877Z,56.90
2023-02-13T23:42:00.656Z,55.00
2023-02-13T23:44:30.672Z,57.33
2023-02-13T23:46:59.015Z,54.97
2023-02-13T23:49:26.737Z,56.53
2023-02-13T23:51:54.858Z,57.43
2023-02-13T23:54:23.958Z,58.37
2023-02-13T23:56:52.639Z,50.83
2023-02-13T23:59:21.172Z,58.30
